Time,TemperatureF,DewpointF,PressureIn,WindDirection,WindDirectionDegrees,WindSpeedMPH,WindSpeedGustMPH,Humidity,HourlyPrecipIn,Conditions,Clouds,dailyrainin,SoftwareType,DateUTC
2013-10-08 00:00:00,44.8,42.3,30.14,West,263,0.0,0.0,91,0.00,,,0.00,Wunderground v.1.15,2013-10-08 04:00:00,
2013-10-08 00:05:00,44.7,42.2,30.14,West,263,0.0,0.0,91,0.00,,,0.00,Wunderground v.1.15,2013-10-08 04:05:00,
2013-10-08 00:10:00,44.6,42.1,30.14,West,263,0.0,0.0,91,0.00,,,0.00,Wunderground v.1.15,2013-10-08 04:10:00,
2013-10-08 00:15:00,44.5,42.0,30.13,West,263,0.0,0.0,91,0.00,,,0.00,Wunderground v.1.15,2013-10-08 04:15:00,
2013-10-08 00:20:00,44.4,41.9,30.13,West,263,0.0,0.0,91,0.00,,,0.00,Wunderground v.1.15,2013-10-08 04:20:00,
2013-10-08 00:25:00,44.3,41.8,30.13,West,263,0.0,0.0,91,0.00,,,0.00,Wunderground v.1.15,2013-10-08 04:25:00,
2013-10-08 00:30:00,44.2,41.7,30.13,West,263,0.0,0.0,91,0.00,,,0.00,Wunderground v.1.15,2013-10-08 04:30:00,
2013-10-08 00:35:00,44.1,41.6,30.13,West,263,0.0,0.0,91,0.00,,,0.00,Wunderground v.1.15,2013-10-08 04:35:00,
2013-10-08 00:40:00,44.1,41.6,30.13,West,263,0.0,0.0,91,0.00,,,0.00,Wunderground v.1.15,2013-10-08 04:40:00,
2013-10-08 00:45:00,44.0,41.5,30.13,West,263,0.0,0.0,91,0.00,,,0.00,Wunderground v.1.15,2013-10-08 04:45:00,
2013-10-08 00:55:00,43.9,41.4,30.13,West,263,0.0,0.0,91,0.00,,,0.00,Wunderground v.1.15,2013-10-08 04:55:00,
2013-10-08 01:00:00,43.8,41.3,30.13,West,263,0.0,0.0,91,0.00,,,0.00,Wunderground v.1.15,2013-10-08 05:00:00,
2013-10-08 01:10:00,43.7,41.2,30.13,West,263,0.0,0.0,91,0.00,,,0.00,Wunderground v.1.15,2013-10-08 05:10:00,
2013-10-08 01:15:00,43.6,41.1,30.13,West,263,0.0,0.0,91,0.00,,,0.00,Wunderground v.1.15,2013-10-08 05:15:00,
2013-10-08 01:25:00,43.5,41.0,30.13,West,263,0.0,0.0,91,0.00,,,0.00,Wunderground v.1.15,2013-10-08 05:25:00,
2013-10-08 01:30:00,43.4,40.9,30.13,West,263,0.0,0.0,91,0.00,,,0.00,Wunderground v.1.15,2013-10-08 05:30:00,
2013-10-08 01:40:00,43.3,40.8,30.13,West,263,0.0,0.0,91,0.00,,,0.00,Wunderground v.1.15,2013-10-08 05:40:00,
2013-10-08 01:45:00,43.3,40.8,30.13,West,263,0.0,0.0,91,0.00,,,0.00,Wunderground v.1.15,2013-10-08 05:45:00,
2013-10-08 01:55:00,43.0,40.6,30.12,West,263,0.0,0.0,91,0.00,,,0.00,Wunderground v.1.15,2013-10-08 05:55:00,
2013-10-08 02:00:00,42.9,40.5,30.12,West,263,0.0,0.0,91,0.00,,,0.00,Wunderground v.1.15,2013-10-08 06:00:00,
2013-10-08 02:05:00,42.9,40.5,30.12,West,263,0.0,0.0,91,0.00,,,0.00,Wunderground v.1.15,2013-10-08 06:05:00,
2013-10-08 02:10:00,42.9,40.5,30.13,West,263,0.0,0.0,91,0.00,,,0.00,Wunderground v.1.15,2013-10-08 06:10:00,
2013-10-08 02:15:00,42.8,40.4,30.13,West,263,0.0,0.0,91,0.00,,,0.00,Wunderground v.1.15,2013-10-08 06:15:00,
2013-10-08 02:25:00,42.8,40.4,30.13,West,263,0.0,0.0,91,0.00,,,0.00,Wunderground v.1.15,2013-10-08 06:25:00,
2013-10-08 02:30:00,42.8,40.4,30.13,West,263,0.0,0.0,91,0.00,,,0.00,Wunderground v.1.15,2013-10-08 06:30:00,
2013-10-08 02:40:00,42.7,40.3,30.13,WSW,255,0.0,0.0,91,0.00,,,0.00,Wunderground v.1.15,2013-10-08 06:40:00,
2013-10-08 02:45:00,42.7,40.3,30.13,WSW,255,0.0,0.0,91,0.00,,,0.00,Wunderground v.1.15,2013-10-08 06:45:00,
2013-10-08 02:50:00,42.6,40.4,30.13,WSW,255,0.0,0.0,92,0.00,,,0.00,Wunderground v.1.15,2013-10-08 06:50:00,
2013-10-08 02:55:00,42.6,40.4,30.13,WSW,255,0.0,0.0,92,0.00,,,0.00,Wunderground v.1.15,2013-10-08 06:55:00,
2013-10-08 03:00:00,42.4,40.2,30.13,WSW,255,0.0,0.0,92,0.00,,,0.00,Wunderground v.1.15,2013-10-08 07:00:00,
2013-10-08 03:10:00,42.2,39.8,30.13,WSW,255,0.0,0.0,91,0.00,,,0.00,Wunderground v.1.15,2013-10-08 07:10:00,
2013-10-08 03:15:00,42.1,39.7,30.13,WSW,255,0.0,0.0,91,0.00,,,0.00,Wunderground v.1.15,2013-10-08 07:15:00,
2013-10-08 03:25:00,41.9,39.7,30.14,WSW,255,0.0,0.0,92,0.00,,,0.00,Wunderground v.1.15,2013-10-08 07:25:00,
2013-10-08 03:30:00,41.9,39.7,30.14,WSW,255,0.0,0.0,92,0.00,,,0.00,Wunderground v.1.15,2013-10-08 07:30:00,
2013-10-08 03:40:00,41.8,39.6,30.14,WSW,255,0.0,0.0,92,0.00,,,0.00,Wunderground v.1.15,2013-10-08 07:40:00,
2013-10-08 03:45:00,41.7,39.5,30.15,WSW,255,0.0,0.0,92,0.00,,,0.00,Wunderground v.1.15,2013-10-08 07:45:00,
2013-10-08 03:55:00,41.5,39.3,30.15,WSW,255,0.0,0.0,92,0.00,,,0.00,Wunderground v.1.15,2013-10-08 07:55:00,
2013-10-08 04:00:00,41.4,39.3,30.15,WSW,255,0.0,0.0,92,0.00,,,0.00,Wunderground v.1.15,2013-10-08 08:00:00,
2013-10-08 04:10:00,41.2,39.1,30.15,WSW,255,0.0,0.0,92,0.00,,,0.00,Wunderground v.1.15,2013-10-08 08:10:00,
2013-10-08 04:20:00,41.2,39.1,30.16,WSW,255,0.0,0.0,92,0.00,,,0.00,Wunderground v.1.15,2013-10-08 08:20:00,
2013-10-08 04:25:00,41.0,38.9,30.16,WSW,255,0.0,0.0,92,0.00,,,0.00,Wunderground v.1.15,2013-10-08 08:25:00,
2013-10-08 04:35:00,40.8,38.7,30.16,WSW,255,0.0,0.0,92,0.00,,,0.00,Wunderground v.1.15,2013-10-08 08:35:00,
2013-10-08 04:40:00,40.8,38.7,30.16,WSW,255,0.0,0.0,92,0.00,,,0.00,Wunderground v.1.15,2013-10-08 08:40:00,
2013-10-08 04:45:00,40.7,38.6,30.16,WSW,255,0.0,0.0,92,0.00,,,0.00,Wunderground v.1.15,2013-10-08 08:45:00,
2013-10-08 04:55:00,40.5,38.4,30.16,WSW,255,0.0,0.0,92,0.00,,,0.00,Wunderground v.1.15,2013-10-08 08:55:00,
2013-10-08 05:00:00,40.5,38.4,30.16,WSW,255,0.0,0.0,92,0.00,,,0.00,Wunderground v.1.15,2013-10-08 09:00:00,
2013-10-08 05:10:00,40.4,38.3,30.17,WSW,255,0.0,0.0,92,0.00,,,0.00,Wunderground v.1.15,2013-10-08 09:10:00,
2013-10-08 05:15:00,40.3,38.2,30.17,WSW,255,0.0,0.0,92,0.00,,,0.00,Wunderground v.1.15,2013-10-08 09:15:00,
2013-10-08 05:20:00,40.2,38.1,30.18,WSW,255,0.0,0.0,92,0.00,,,0.00,Wunderground v.1.15,2013-10-08 09:20:00,
2013-10-08 05:25:00,40.0,37.9,30.18,WSW,255,0.0,0.0,92,0.00,,,0.00,Wunderground v.1.15,2013-10-08 09:25:00,
2013-10-08 05:30:00,39.9,37.8,30.18,WSW,255,0.0,0.0,92,0.00,,,0.00,Wunderground v.1.15,2013-10-08 09:30:00,
2013-10-08 05:40:00,39.8,37.7,30.18,WSW,255,0.0,0.0,92,0.00,,,0.00,Wunderground v.1.15,2013-10-08 09:40:00,
2013-10-08 05:45:00,39.7,37.6,30.19,WSW,255,0.0,0.0,92,0.00,,,0.00,Wunderground v.1.15,2013-10-08 09:45:00,
2013-10-08 05:55:00,39.6,37.5,30.18,WSW,255,0.0,0.0,92,0.00,,,0.00,Wunderground v.1.15,2013-10-08 09:55:00,
2013-10-08 06:00:00,39.4,37.3,30.18,WSW,255,0.0,0.0,92,0.00,,,0.00,Wunderground v.1.15,2013-10-08 10:00:00,
2013-10-08 06:10:00,39.3,37.2,30.19,WSW,255,0.0,0.0,92,0.00,,,0.00,Wunderground v.1.15,2013-10-08 10:10:00,
2013-10-08 06:20:00,39.1,37.0,30.20,WSW,255,0.0,0.0,92,0.00,,,0.00,Wunderground v.1.15,2013-10-08 10:20:00,
2013-10-08 06:25:00,39.0,36.9,30.20,WSW,255,0.0,0.0,92,0.00,,,0.00,Wunderground v.1.15,2013-10-08 10:25:00,
2013-10-08 06:30:00,38.9,36.8,30.20,WSW,255,0.0,0.0,92,0.00,,,0.00,Wunderground v.1.15,2013-10-08 10:30:00,
2013-10-08 06:40:00,38.9,36.8,30.20,WSW,255,0.0,0.0,92,0.00,,,0.00,Wunderground v.1.15,2013-10-08 10:40:00,
2013-10-08 06:45:00,38.9,36.8,30.20,WSW,255,0.0,0.0,92,0.00,,,0.00,Wunderground v.1.15,2013-10-08 10:45:00,
2013-10-08 06:55:00,38.8,36.7,30.20,WSW,255,0.0,0.0,92,0.00,,,0.00,Wunderground v.1.15,2013-10-08 10:55:00,
2013-10-08 07:00:00,38.9,36.8,30.21,WSW,255,0.0,0.0,92,0.00,,,0.00,Wunderground v.1.15,2013-10-08 11:00:00,
2013-10-08 07:05:00,38.9,36.8,30.21,WSW,255,0.0,0.0,92,0.00,,,0.00,Wunderground v.1.15,2013-10-08 11:05:00,
2013-10-08 07:10:00,38.8,36.7,30.21,WSW,255,0.0,0.0,92,0.00,,,0.00,Wunderground v.1.15,2013-10-08 11:10:00,
2013-10-08 07:15:00,38.7,36.6,30.21,WSW,255,0.0,0.0,92,0.00,,,0.00,Wunderground v.1.15,2013-10-08 11:15:00,
2013-10-08 07:25:00,38.6,36.5,30.22,WSW,255,0.0,0.0,92,0.00,,,0.01,Wunderground v.1.15,2013-10-08 11:25:00,
2013-10-08 07:30:00,38.6,36.5,30.21,WSW,255,0.0,0.0,92,0.00,,,0.01,Wunderground v.1.15,2013-10-08 11:30:00,
2013-10-08 07:35:00,38.6,36.5,30.22,WSW,255,0.0,0.0,92,0.00,,,0.01,Wunderground v.1.15,2013-10-08 11:35:00,
2013-10-08 07:40:00,38.5,36.4,30.22,WSW,255,0.0,0.0,92,0.00,,,0.01,Wunderground v.1.15,2013-10-08 11:40:00,
2013-10-08 07:45:00,38.6,36.5,30.22,WSW,255,0.0,0.0,92,0.00,,,0.01,Wunderground v.1.15,2013-10-08 11:45:00,
2013-10-08 07:55:00,39.2,37.1,30.23,ESE,103,0.0,0.0,92,0.00,,,0.01,Wunderground v.1.15,2013-10-08 11:55:00,
2013-10-08 08:00:00,39.4,37.3,30.23,ESE,103,0.0,0.0,92,0.00,,,0.01,Wunderground v.1.15,2013-10-08 12:00:00,
2013-10-08 08:10:00,39.6,37.5,30.23,ESE,103,0.0,0.0,92,0.00,,,0.01,Wunderground v.1.15,2013-10-08 12:10:00,
2013-10-08 08:15:00,39.6,37.5,30.23,ESE,103,0.0,0.0,92,0.00,,,0.01,Wunderground v.1.15,2013-10-08 12:15:00,
2013-10-08 08:25:00,40.1,38.0,30.23,East,100,0.0,0.0,92,0.00,,,0.01,Wunderground v.1.15,2013-10-08 12:25:00,
2013-10-08 08:30:00,40.6,38.7,30.23,ESE,108,0.0,1.0,93,0.00,,,0.01,Wunderground v.1.15,2013-10-08 12:30:00,
2013-10-08 08:35:00,40.9,38.8,30.23,ESE,107,0.0,1.0,92,0.00,,,0.01,Wunderground v.1.15,2013-10-08 12:35:00,
2013-10-08 08:40:00,41.2,39.3,30.23,ESE,107,0.0,0.0,93,0.00,,,0.01,Wunderground v.1.15,2013-10-08 12:40:00,
2013-10-08 08:45:00,41.4,39.3,30.23,ESE,107,0.0,0.0,92,0.00,,,0.01,Wunderground v.1.15,2013-10-08 12:45:00,
2013-10-08 08:55:00,42.2,40.0,30.23,ESE,107,0.0,0.0,92,0.00,,,0.01,Wunderground v.1.15,2013-10-08 12:55:00,
2013-10-08 09:00:00,43.1,41.2,30.23,East,98,0.0,0.0,93,0.00,,,0.01,Wunderground v.1.15,2013-10-08 13:00:00,
2013-10-08 09:10:00,44.4,42.5,30.24,ENE,59,0.0,0.0,93,0.00,,,0.01,Wunderground v.1.15,2013-10-08 13:10:00,
2013-10-08 09:15:00,44.7,42.5,30.24,ENE,60,0.0,0.0,92,0.00,,,0.01,Wunderground v.1.15,2013-10-08 13:15:00,
2013-10-08 09:25:00,45.6,43.7,30.24,South,183,0.0,0.0,93,0.00,,,0.01,Wunderground v.1.15,2013-10-08 13:25:00,
2013-10-08 09:30:00,46.3,44.1,30.24,SE,135,0.0,0.0,92,0.00,,,0.01,Wunderground v.1.15,2013-10-08 13:30:00,
2013-10-08 09:40:00,48.0,46.1,30.24,SE,134,0.0,0.0,93,0.00,,,0.01,Wunderground v.1.15,2013-10-08 13:40:00,
2013-10-08 09:50:00,49.2,47.0,30.24,SE,134,1.0,4.0,92,0.00,,,0.01,Wunderground v.1.15,2013-10-08 13:50:00,
2013-10-08 09:55:00,50.0,47.5,30.24,SSE,149,2.0,4.0,91,0.00,,,0.01,Wunderground v.1.15,2013-10-08 13:55:00,
2013-10-08 10:00:00,50.7,47.9,30.24,SSW,196,1.0,1.0,90,0.00,,,0.01,Wunderground v.1.15,2013-10-08 14:00:00,
2013-10-08 10:05:00,51.0,47.6,30.25,ESE,114,1.0,8.0,88,0.00,,,0.01,Wunderground v.1.15,2013-10-08 14:05:00,
2013-10-08 10:10:00,51.6,47.5,30.24,SSE,167,1.0,1.0,86,0.00,,,0.01,Wunderground v.1.15,2013-10-08 14:10:00,
2013-10-08 10:15:00,52.4,47.1,30.24,South,188,2.0,5.0,82,0.00,,,0.01,Wunderground v.1.15,2013-10-08 14:15:00,
2013-10-08 10:25:00,54.4,47.0,30.24,South,173,3.0,4.0,76,0.00,,,0.01,Wunderground v.1.15,2013-10-08 14:25:00,
2013-10-08 10:30:00,55.1,47.0,30.24,SSW,204,4.0,4.0,74,0.00,,,0.01,Wunderground v.1.15,2013-10-08 14:30:00,
2013-10-08 10:40:00,56.3,47.0,30.24,SSE,155,2.0,6.0,71,0.00,,,0.01,Wunderground v.1.15,2013-10-08 14:40:00,
2013-10-08 10:45:00,56.6,46.9,30.24,ENE,57,3.0,6.0,70,0.00,,,0.01,Wunderground v.1.15,2013-10-08 14:45:00,
2013-10-08 10:50:00,57.1,47.0,30.24,SSE,148,3.0,4.0,69,0.00,,,0.01,Wunderground v.1.15,2013-10-08 14:50:00,
2013-10-08 10:55:00,57.3,46.8,30.24,ESE,122,3.0,4.0,68,0.00,,,0.01,Wunderground v.1.15,2013-10-08 14:55:00,
2013-10-08 11:00:00,57.6,46.3,30.24,SSE,154,4.0,4.0,66,0.00,,,0.01,Wunderground v.1.15,2013-10-08 15:00:00,
2013-10-08 11:10:00,58.2,47.3,30.24,South,169,4.0,5.0,67,0.00,,,0.01,Wunderground v.1.15,2013-10-08 15:10:00,
2013-10-08 11:15:00,58.7,47.8,30.24,SSE,159,3.0,8.0,67,0.00,,,0.01,Wunderground v.1.15,2013-10-08 15:15:00,
2013-10-08 11:25:00,59.2,47.4,30.24,SSE,149,4.0,8.0,65,0.00,,,0.01,Wunderground v.1.15,2013-10-08 15:25:00,
2013-10-08 11:30:00,59.4,46.8,30.24,South,171,5.0,5.0,63,0.00,,,0.01,Wunderground v.1.15,2013-10-08 15:30:00,
2013-10-08 11:40:00,59.8,46.7,30.24,SSE,158,5.0,8.0,62,0.00,,,0.01,Wunderground v.1.15,2013-10-08 15:40:00,
2013-10-08 11:45:00,60.0,46.5,30.24,South,175,4.0,8.0,61,0.00,,,0.01,Wunderground v.1.15,2013-10-08 15:45:00,
2013-10-08 11:50:00,60.4,46.9,30.24,ESE,109,4.0,5.0,61,0.00,,,0.01,Wunderground v.1.15,2013-10-08 15:50:00,
2013-10-08 11:55:00,61.0,48.7,30.24,East,90,3.0,5.0,64,0.00,,,0.01,Wunderground v.1.15,2013-10-08 15:55:00,
2013-10-08 12:05:00,61.2,45.4,30.24,ESE,111,5.0,10.0,56,0.00,,,0.01,Wunderground v.1.15,2013-10-08 16:05:00,
2013-10-08 12:10:00,61.1,46.2,30.24,ENE,76,5.0,5.0,58,0.00,,,0.01,Wunderground v.1.15,2013-10-08 16:10:00,
2013-10-08 12:15:00,61.4,46.0,30.24,East,98,4.0,9.0,57,0.00,,,0.01,Wunderground v.1.15,2013-10-08 16:15:00,
2013-10-08 12:25:00,61.6,46.2,30.24,SW,234,4.0,4.0,57,0.00,,,0.01,Wunderground v.1.15,2013-10-08 16:25:00,
2013-10-08 12:30:00,61.7,46.8,30.24,SE,129,3.0,4.0,58,0.00,,,0.01,Wunderground v.1.15,2013-10-08 16:30:00,
2013-10-08 12:40:00,62.5,48.9,30.24,SE,143,3.0,6.0,61,0.00,,,0.01,Wunderground v.1.15,2013-10-08 16:40:00,
2013-10-08 12:45:00,62.5,47.1,30.24,SSE,155,3.0,6.0,57,0.00,,,0.01,Wunderground v.1.15,2013-10-08 16:45:00,
2013-10-08 12:55:00,62.3,46.9,30.24,SSE,160,4.0,6.0,57,0.00,,,0.01,Wunderground v.1.15,2013-10-08 16:55:00,
2013-10-08 13:00:00,62.0,46.6,30.24,SE,127,4.0,8.0,57,0.00,,,0.01,Wunderground v.1.15,2013-10-08 17:00:00,
2013-10-08 13:05:00,61.9,46.0,30.23,ENE,77,4.0,8.0,56,0.00,,,0.01,Wunderground v.1.15,2013-10-08 17:05:00,
2013-10-08 13:10:00,62.0,45.6,30.23,NW,319,3.0,3.0,55,0.00,,,0.01,Wunderground v.1.15,2013-10-08 17:10:00,
2013-10-08 13:15:00,62.1,46.7,30.22,SW,229,4.0,4.0,57,0.00,,,0.01,Wunderground v.1.15,2013-10-08 17:15:00,
2013-10-08 13:25:00,62.7,48.2,30.22,South,175,3.0,6.0,59,0.00,,,0.01,Wunderground v.1.15,2013-10-08 17:25:00,
2013-10-08 13:30:00,62.9,46.0,30.22,ENE,65,3.0,3.0,54,0.00,,,0.01,Wunderground v.1.15,2013-10-08 17:30:00,
2013-10-08 13:40:00,63.0,47.1,30.22,ESE,109,4.0,5.0,56,0.00,,,0.01,Wunderground v.1.15,2013-10-08 17:40:00,
2013-10-08 13:45:00,63.1,46.7,30.22,ESE,115,4.0,5.0,55,0.00,,,0.01,Wunderground v.1.15,2013-10-08 17:45:00,
2013-10-08 13:50:00,63.5,48.0,30.22,SW,234,3.0,3.0,57,0.00,,,0.01,Wunderground v.1.15,2013-10-08 17:50:00,
2013-10-08 13:55:00,63.6,47.6,30.22,ENE,68,3.0,5.0,56,0.00,,,0.01,Wunderground v.1.15,2013-10-08 17:55:00,
2013-10-08 14:00:00,63.5,47.0,30.21,SE,132,3.0,4.0,55,0.00,,,0.01,Wunderground v.1.15,2013-10-08 18:00:00,
2013-10-08 14:10:00,62.9,47.0,30.21,ESE,103,3.0,3.0,56,0.00,,,0.01,Wunderground v.1.15,2013-10-08 18:10:00,
2013-10-08 14:15:00,62.7,46.8,30.21,SE,124,3.0,4.0,56,0.00,,,0.01,Wunderground v.1.15,2013-10-08 18:15:00,
2013-10-08 14:25:00,62.1,47.1,30.20,SW,217,3.0,4.0,58,0.00,,,0.01,Wunderground v.1.15,2013-10-08 18:25:00,
2013-10-08 14:30:00,62.3,47.8,30.20,SSE,148,3.0,4.0,59,0.00,,,0.01,Wunderground v.1.15,2013-10-08 18:30:00,
2013-10-08 14:35:00,62.5,49.3,30.20,SE,133,2.0,4.0,62,0.00,,,0.01,Wunderground v.1.15,2013-10-08 18:35:00,
2013-10-08 14:40:00,62.6,49.4,30.20,WSW,252,2.0,2.0,62,0.00,,,0.01,Wunderground v.1.15,2013-10-08 18:40:00,
2013-10-08 14:45:00,62.6,49.4,30.20,SSE,147,2.0,9.0,62,0.00,,,0.01,Wunderground v.1.15,2013-10-08 18:45:00,
2013-10-08 14:55:00,62.9,48.3,30.20,SSW,209,4.0,6.0,59,0.00,,,0.01,Wunderground v.1.15,2013-10-08 18:55:00,
2013-10-08 15:00:00,63.1,48.1,30.20,ENE,77,4.0,4.0,58,0.00,,,0.01,Wunderground v.1.15,2013-10-08 19:00:00,
2013-10-08 15:10:00,63.7,49.5,30.19,ESE,108,3.0,3.0,60,0.00,,,0.01,Wunderground v.1.15,2013-10-08 19:10:00,
2013-10-08 15:15:00,63.6,49.0,30.19,East,93,3.0,3.0,59,0.00,,,0.01,Wunderground v.1.15,2013-10-08 19:15:00,
2013-10-08 15:20:00,63.5,49.8,30.19,SSE,153,3.0,6.0,61,0.00,,,0.01,Wunderground v.1.15,2013-10-08 19:20:00,
2013-10-08 15:25:00,63.6,51.6,30.19,SE,124,3.0,6.0,65,0.00,,,0.01,Wunderground v.1.15,2013-10-08 19:25:00,
2013-10-08 15:30:00,63.5,51.5,30.20,South,191,2.0,2.0,65,0.00,,,0.01,Wunderground v.1.15,2013-10-08 19:30:00,
2013-10-08 15:40:00,63.7,50.9,30.19,SSE,165,3.0,4.0,63,0.00,,,0.01,Wunderground v.1.15,2013-10-08 19:40:00,
2013-10-08 15:45:00,64.2,52.2,30.19,SW,231,2.0,4.0,65,0.00,,,0.01,Wunderground v.1.15,2013-10-08 19:45:00,
2013-10-08 15:55:00,63.6,51.2,30.19,ESE,117,2.0,5.0,64,0.00,,,0.01,Wunderground v.1.15,2013-10-08 19:55:00,
2013-10-08 16:00:00,63.6,50.8,30.19,South,182,3.0,3.0,63,0.00,,,0.01,Wunderground v.1.15,2013-10-08 20:00:00,
2013-10-08 16:05:00,63.8,50.1,30.19,SSW,212,3.0,3.0,61,0.00,,,0.01,Wunderground v.1.15,2013-10-08 20:05:00,
2013-10-08 16:10:00,63.9,51.9,30.19,SSE,161,2.0,5.0,65,0.00,,,0.01,Wunderground v.1.15,2013-10-08 20:10:00,
2013-10-08 16:15:00,63.8,51.8,30.19,South,173,2.0,5.0,65,0.00,,,0.01,Wunderground v.1.15,2013-10-08 20:15:00,
2013-10-08 16:25:00,63.9,51.9,30.19,SE,136,3.0,3.0,65,0.00,,,0.01,Wunderground v.1.15,2013-10-08 20:25:00,
2013-10-08 16:35:00,63.7,51.3,30.19,East,90,2.0,2.0,64,0.00,,,0.01,Wunderground v.1.15,2013-10-08 20:35:00,
2013-10-08 16:40:00,63.3,51.7,30.19,SSE,153,2.0,2.0,66,0.00,,,0.01,Wunderground v.1.15,2013-10-08 20:40:00,
2013-10-08 16:45:00,63.0,51.0,30.19,SSW,194,2.0,2.0,65,0.00,,,0.01,Wunderground v.1.15,2013-10-08 20:45:00,
2013-10-08 16:50:00,63.2,50.8,30.19,SSW,202,2.0,4.0,64,0.00,,,0.01,Wunderground v.1.15,2013-10-08 20:50:00,
2013-10-08 16:55:00,63.6,52.4,30.19,SW,235,2.0,4.0,67,0.00,,,0.01,Wunderground v.1.15,2013-10-08 20:55:00,
2013-10-08 17:00:00,62.9,52.6,30.19,SSW,198,2.0,2.0,69,0.00,,,0.01,Wunderground v.1.15,2013-10-08 21:00:00,
2013-10-08 17:10:00,61.9,51.2,30.19,SSW,200,2.0,2.0,68,0.00,,,0.01,Wunderground v.1.15,2013-10-08 21:10:00,
2013-10-08 17:15:00,61.8,51.1,30.19,SSW,202,2.0,2.0,68,0.00,,,0.01,Wunderground v.1.15,2013-10-08 21:15:00,
2013-10-08 17:25:00,61.6,51.7,30.19,SW,221,1.0,1.0,70,0.00,,,0.01,Wunderground v.1.15,2013-10-08 21:25:00,
2013-10-08 17:30:00,61.7,51.4,30.19,SW,215,2.0,2.0,69,0.00,,,0.01,Wunderground v.1.15,2013-10-08 21:30:00,
2013-10-08 17:35:00,61.4,52.3,30.19,SW,221,1.0,2.0,72,0.00,,,0.01,Wunderground v.1.15,2013-10-08 21:35:00,
2013-10-08 17:40:00,61.1,52.4,30.19,SSW,212,1.0,1.0,73,0.00,,,0.01,Wunderground v.1.15,2013-10-08 21:40:00,
2013-10-08 17:50:00,60.9,52.6,30.19,SSW,207,0.0,1.0,74,0.00,,,0.01,Wunderground v.1.15,2013-10-08 21:50:00,
2013-10-08 17:55:00,60.7,52.7,30.19,ESE,115,1.0,1.0,75,0.00,,,0.01,Wunderground v.1.15,2013-10-08 21:55:00,
2013-10-08 18:00:00,61.1,52.7,30.19,SSW,196,1.0,1.0,74,0.00,,,0.01,Wunderground v.1.15,2013-10-08 22:00:00,
2013-10-08 18:10:00,60.6,51.1,30.20,SSE,151,1.0,1.0,71,0.00,,,0.01,Wunderground v.1.15,2013-10-08 22:10:00,
2013-10-08 18:15:00,60.5,52.2,30.20,South,180,1.0,2.0,74,0.00,,,0.01,Wunderground v.1.15,2013-10-08 22:15:00,
2013-10-08 18:20:00,60.4,51.7,30.20,SE,141,1.0,1.0,73,0.00,,,0.01,Wunderground v.1.15,2013-10-08 22:20:00,
2013-10-08 18:25:00,60.1,51.8,30.20,South,180,1.0,1.0,74,0.00,,,0.01,Wunderground v.1.15,2013-10-08 22:25:00,
2013-10-08 18:30:00,60.0,52.1,30.20,South,191,1.0,1.0,75,0.00,,,0.01,Wunderground v.1.15,2013-10-08 22:30:00,
2013-10-08 18:40:00,59.3,52.1,30.20,South,191,0.0,0.0,77,0.00,,,0.01,Wunderground v.1.15,2013-10-08 22:40:00,
2013-10-08 18:45:00,58.9,52.4,30.20,South,191,0.0,0.0,79,0.00,,,0.01,Wunderground v.1.15,2013-10-08 22:45:00,
2013-10-08 18:55:00,58.0,51.9,30.20,South,191,0.0,0.0,80,0.00,,,0.01,Wunderground v.1.15,2013-10-08 22:55:00,
2013-10-08 19:10:00,56.3,51.2,30.21,South,191,0.0,0.0,83,0.00,,,0.01,Wunderground v.1.15,2013-10-08 23:10:00,
2013-10-08 19:15:00,55.8,50.7,30.21,South,191,0.0,0.0,83,0.00,,,0.01,Wunderground v.1.15,2013-10-08 23:15:00,
2013-10-08 19:25:00,54.8,50.4,30.21,South,191,0.0,0.0,85,0.00,,,0.01,Wunderground v.1.15,2013-10-08 23:25:00,
2013-10-08 19:30:00,54.3,50.2,30.21,South,191,0.0,0.0,86,0.00,,,0.01,Wunderground v.1.15,2013-10-08 23:30:00,
2013-10-08 19:40:00,53.6,49.8,30.22,South,191,0.0,0.0,87,0.00,,,0.01,Wunderground v.1.15,2013-10-08 23:40:00,
2013-10-08 19:45:00,53.3,49.5,30.22,South,191,0.0,0.0,87,0.00,,,0.01,Wunderground v.1.15,2013-10-08 23:45:00,
2013-10-08 19:55:00,52.7,48.9,30.22,South,191,0.0,0.0,87,0.00,,,0.01,Wunderground v.1.15,2013-10-08 23:55:00,
2013-10-08 20:00:00,52.4,48.9,30.22,South,191,0.0,0.0,88,0.00,,,0.01,Wunderground v.1.15,2013-10-09 00:00:00,
2013-10-08 20:10:00,51.9,48.5,30.22,South,191,0.0,0.0,88,0.00,,,0.01,Wunderground v.1.15,2013-10-09 00:10:00,
2013-10-08 20:15:00,51.6,48.2,30.23,South,191,0.0,0.0,88,0.00,,,0.01,Wunderground v.1.15,2013-10-09 00:15:00,
2013-10-08 20:20:00,51.4,48.0,30.22,South,191,0.0,0.0,88,0.00,,,0.01,Wunderground v.1.15,2013-10-09 00:20:00,
2013-10-08 20:25:00,51.3,48.2,30.23,South,191,0.0,0.0,89,0.00,,,0.01,Wunderground v.1.15,2013-10-09 00:25:00,
2013-10-08 20:35:00,50.8,47.7,30.23,South,191,0.0,0.0,89,0.00,,,0.01,Wunderground v.1.15,2013-10-09 00:35:00,
2013-10-08 20:40:00,50.5,47.4,30.24,South,191,0.0,0.0,89,0.00,,,0.01,Wunderground v.1.15,2013-10-09 00:40:00,
2013-10-08 20:45:00,50.3,47.2,30.24,South,191,0.0,0.0,89,0.00,,,0.01,Wunderground v.1.15,2013-10-09 00:45:00,
2013-10-08 20:55:00,49.9,46.8,30.24,South,191,0.0,0.0,89,0.00,,,0.01,Wunderground v.1.15,2013-10-09 00:55:00,
2013-10-08 21:00:00,49.7,46.6,30.25,South,191,0.0,0.0,89,0.00,,,0.01,Wunderground v.1.15,2013-10-09 01:00:00,
2013-10-08 21:05:00,49.5,46.4,30.25,South,191,0.0,0.0,89,0.00,,,0.01,Wunderground v.1.15,2013-10-09 01:05:00,
2013-10-08 21:10:00,49.4,46.3,30.25,South,191,0.0,0.0,89,0.00,,,0.01,Wunderground v.1.15,2013-10-09 01:10:00,
2013-10-08 21:15:00,49.2,46.1,30.25,South,191,0.0,0.0,89,0.00,,,0.01,Wunderground v.1.15,2013-10-09 01:15:00,
2013-10-08 21:25:00,49.0,45.9,30.26,South,191,0.0,0.0,89,0.00,,,0.01,Wunderground v.1.15,2013-10-09 01:25:00,
2013-10-08 21:30:00,48.8,46.0,30.26,South,191,0.0,0.0,90,0.00,,,0.01,Wunderground v.1.15,2013-10-09 01:30:00,
2013-10-08 21:40:00,48.6,45.8,30.26,South,191,0.0,0.0,90,0.00,,,0.01,Wunderground v.1.15,2013-10-09 01:40:00,
2013-10-08 21:45:00,48.5,45.7,30.26,South,191,0.0,0.0,90,0.00,,,0.01,Wunderground v.1.15,2013-10-09 01:45:00,
2013-10-08 21:55:00,48.3,45.5,30.26,South,191,0.0,0.0,90,0.00,,,0.01,Wunderground v.1.15,2013-10-09 01:55:00,
2013-10-08 22:00:00,48.2,45.4,30.26,South,191,0.0,0.0,90,0.00,,,0.01,Wunderground v.1.15,2013-10-09 02:00:00,
2013-10-08 22:05:00,48.1,45.3,30.26,South,191,0.0,0.0,90,0.00,,,0.01,Wunderground v.1.15,2013-10-09 02:05:00,
2013-10-08 22:10:00,48.0,45.2,30.26,South,191,0.0,0.0,90,0.00,,,0.01,Wunderground v.1.15,2013-10-09 02:10:00,
2013-10-08 22:20:00,47.7,44.9,30.27,South,191,0.0,0.0,90,0.00,,,0.01,Wunderground v.1.15,2013-10-09 02:20:00,
2013-10-08 22:25:00,47.5,44.7,30.27,South,191,0.0,0.0,90,0.00,,,0.01,Wunderground v.1.15,2013-10-09 02:25:00,
2013-10-08 22:30:00,47.3,44.5,30.27,South,191,0.0,0.0,90,0.00,,,0.01,Wunderground v.1.15,2013-10-09 02:30:00,
2013-10-08 22:40:00,47.0,44.2,30.27,South,191,0.0,0.0,90,0.00,,,0.01,Wunderground v.1.15,2013-10-09 02:40:00,
2013-10-08 22:45:00,46.8,44.0,30.27,South,191,0.0,0.0,90,0.00,,,0.01,Wunderground v.1.15,2013-10-09 02:45:00,
2013-10-08 22:50:00,46.7,43.9,30.27,South,191,0.0,0.0,90,0.00,,,0.01,Wunderground v.1.15,2013-10-09 02:50:00,
2013-10-08 22:55:00,46.5,43.7,30.27,South,191,0.0,0.0,90,0.00,,,0.01,Wunderground v.1.15,2013-10-09 02:55:00,
2013-10-08 23:05:00,46.3,43.5,30.27,South,191,0.0,0.0,90,0.00,,,0.01,Wunderground v.1.15,2013-10-09 03:05:00,
2013-10-08 23:10:00,46.1,43.3,30.27,South,191,0.0,0.0,90,0.00,,,0.01,Wunderground v.1.15,2013-10-09 03:10:00,
2013-10-08 23:15:00,46.1,43.3,30.27,South,191,0.0,0.0,90,0.00,,,0.01,Wunderground v.1.15,2013-10-09 03:15:00,
2013-10-08 23:25:00,45.9,43.1,30.27,South,191,0.0,0.0,90,0.00,,,0.01,Wunderground v.1.15,2013-10-09 03:25:00,
2013-10-08 23:30:00,45.8,43.0,30.27,South,191,0.0,0.0,90,0.00,,,0.01,Wunderground v.1.15,2013-10-09 03:30:00,
2013-10-08 23:40:00,45.5,42.7,30.27,South,191,0.0,0.0,90,0.00,,,0.01,Wunderground v.1.15,2013-10-09 03:40:00,
2013-10-08 23:45:00,45.4,42.6,30.27,South,191,0.0,0.0,90,0.00,,,0.01,Wunderground v.1.15,2013-10-09 03:45:00,
2013-10-08 23:50:00,45.2,42.7,30.27,South,191,0.0,0.0,91,0.00,,,0.01,Wunderground v.1.15,2013-10-09 03:50:00,
2013-10-08 23:55:00,45.2,42.7,30.27,South,191,0.0,0.0,91,0.00,,,0.01,Wunderground v.1.15,2013-10-09 03:55:00,